Time;durP1;ratioP1;P1;durP2;ratioP2;P2;SDS_P1;SDS_P2;PMS_P1;PMS_P2;Temp;Humidity;BMP_temperature;BMP_pressure;BME280_temperature;BME280_humidity;BME280_pressure;Samples;Min_cycle;Max_cycle;Signal;HPM_P1;HPM_P2
2021/11/01 00:01:30;;;;;;;66.70;41.33;;;;;;;5.71;100.00;97663.59;4896762;29;20033;-77
2021/11/01 00:04:02;;;;;;;70.10;41.60;;;;;;;5.62;100.00;97659.00;4896740;29;20104;-77
2021/11/01 00:06:27;;;;;;;71.95;41.38;;;;;;;5.53;100.00;97644.34;4897428;29;20474;-78
2021/11/01 00:08:53;;;;;;;74.43;43.40;;;;;;;5.56;100.00;97654.66;4895871;29;20029;-78
2021/11/01 00:11:18;;;;;;;72.60;41.60;;;;;;;5.61;100.00;97654.63;4895304;29;20037;-77
2021/11/01 00:13:43;;;;;;;73.72;42.63;;;;;;;5.66;100.00;97647.34;4897465;29;20032;-77
2021/11/01 00:16:09;;;;;;;62.85;39.95;;;;;;;5.61;100.00;97643.78;4897083;29;20043;-76
2021/11/01 00:18:34;;;;;;;64.25;39.78;;;;;;;5.58;100.00;97641.63;4889462;29;20044;-78
2021/11/01 00:21:00;;;;;;;70.63;40.97;;;;;;;5.60;100.00;97636.75;4887378;29;20033;-78
2021/11/01 00:23:25;;;;;;;68.18;42.58;;;;;;;5.65;100.00;97634.84;4880043;29;20483;-78
2021/11/01 00:25:51;;;;;;;66.40;39.58;;;;;;;5.63;100.00;97641.63;4878648;29;20029;-76
2021/11/01 00:28:16;;;;;;;66.07;41.15;;;;;;;5.63;100.00;97631.59;4885747;29;20028;-77
2021/11/01 00:30:42;;;;;;;64.30;39.50;;;;;;;5.68;100.00;97633.47;4896271;29;20415;-77
2021/11/01 00:33:08;;;;;;;61.47;38.08;;;;;;;5.65;100.00;97631.31;4897664;29;20033;-77
2021/11/01 00:35:33;;;;;;;65.07;38.30;;;;;;;5.70;100.00;97625.91;4899032;29;20017;-79
2021/11/01 00:37:59;;;;;;;63.45;38.50;;;;;;;5.72;100.00;97629.16;4897700;29;20029;-79
2021/11/01 00:40:24;;;;;;;63.97;38.88;;;;;;;5.65;100.00;97628.59;4900594;29;20137;-78
2021/11/01 00:42:50;;;;;;;52.63;34.17;;;;;;;5.66;100.00;97628.34;4898425;29;20025;-79
2021/11/01 00:45:15;;;;;;;59.35;35.22;;;;;;;5.58;100.00;97617.19;4898710;29;20036;-79
2021/11/01 00:47:40;;;;;;;57.15;36.75;;;;;;;5.59;100.00;97624.25;4897489;29;20036;-79
2021/11/01 00:50:07;;;;;;;56.50;36.42;;;;;;;5.56;100.00;97609.34;4897239;29;20028;-78
2021/11/01 00:52:33;;;;;;;60.97;37.67;;;;;;;5.57;100.00;97629.97;4895882;29;20031;-79
2021/11/01 00:55:10;;;;;;;59.92;37.47;;;;;;;5.52;100.00;97618.28;4896744;29;20016;-79
2021/11/01 00:57:36;;;;;;;56.70;35.17;;;;;;;5.55;100.00;97617.75;4886630;29;20577;-78
2021/11/01 01:00:03;;;;;;;62.47;35.80;;;;;;;5.68;100.00;97617.22;4885415;29;20120;-79
2021/11/01 01:02:33;;;;;;;60.90;34.90;;;;;;;5.76;100.00;97608.53;4877821;29;20097;-79
2021/11/01 01:04:59;;;;;;;55.85;34.45;;;;;;;5.79;100.00;97605.28;4888273;29;20067;-78
2021/11/01 01:07:25;;;;;;;60.25;34.05;;;;;;;5.81;100.00;97601.19;4896199;29;20407;-79
2021/11/01 01:09:50;;;;;;;52.42;33.38;;;;;;;5.69;100.00;97591.72;4896923;29;20036;-78
2021/11/01 01:12:17;;;;;;;57.05;34.53;;;;;;;5.53;100.00;97590.91;4897730;29;20044;-79
2021/11/01 01:14:47;;;;;;;58.60;35.55;;;;;;;5.46;100.00;97584.94;4895978;29;20077;-78
2021/11/01 01:17:12;;;;;;;55.10;35.13;;;;;;;5.20;100.00;97589.53;4897166;29;20068;-79
2021/11/01 01:19:50;;;;;;;66.03;37.47;;;;;;;5.10;100.00;97591.44;4895180;29;20067;-78
2021/11/01 01:22:28;;;;;;;62.85;35.97;;;;;;;5.10;100.00;97578.69;4899395;29;20060;-79
2021/11/01 01:25:02;;;;;;;58.80;36.47;;;;;;;5.22;100.00;97575.72;4906209;29;20068;-80
2021/11/01 01:27:28;;;;;;;59.55;36.00;;;;;;;5.17;100.00;97573.03;4912420;29;20028;-79
2021/11/01 01:29:53;;;;;;;67.70;38.78;;;;;;;5.20;100.00;97567.06;4911825;29;20040;-79
2021/11/01 01:32:18;;;;;;;67.68;39.35;;;;;;;5.29;100.00;97565.44;4899865;29;20052;-78
2021/11/01 01:34:44;;;;;;;71.70;41.08;;;;;;;5.33;100.00;97567.31;4889189;29;20031;-78
2021/11/01 01:37:09;;;;;;;62.55;37.85;;;;;;;5.26;100.00;97561.34;4881015;29;20093;-79
2021/11/01 01:39:35;;;;;;;68.15;37.90;;;;;;;5.40;100.00;97561.63;4891347;29;20471;-82
2021/11/01 01:42:00;;;;;;;58.55;37.97;;;;;;;5.44;100.00;97559.19;4892977;29;20028;-78
2021/11/01 01:44:26;;;;;;;60.00;36.72;;;;;;;5.42;100.00;97548.59;4892685;29;20041;-79
2021/11/01 01:46:51;;;;;;;61.05;36.95;;;;;;;5.48;100.00;97546.72;4895945;29;20024;-78
2021/11/01 01:49:17;;;;;;;57.03;35.80;;;;;;;5.60;100.00;97545.34;4897838;29;20067;-78
2021/11/01 01:51:42;;;;;;;64.45;37.10;;;;;;;5.58;100.00;97549.38;4896583;29;20025;-78
2021/11/01 01:54:08;;;;;;;60.75;37.42;;;;;;;5.64;100.00;97546.41;4894779;29;20085;-78
2021/11/01 01:56:33;;;;;;;60.33;35.88;;;;;;;5.64;100.00;97542.91;4895548;29;20071;-77
2021/11/01 01:59:02;;;;;;;61.33;38.13;;;;;;;5.63;100.00;97541.25;4895048;29;20025;-79
2021/11/01 02:01:28;;;;;;;61.63;36.25;;;;;;;5.66;100.00;97533.41;4897837;29;20092;-79
2021/11/01 02:03:54;;;;;;;61.25;37.97;;;;;;;5.60;100.00;97539.09;4899059;29;20064;-77
2021/11/01 02:06:46;;;;;;;62.30;38.05;;;;;;;5.68;100.00;97541.25;4902027;29;20028;-78
2021/11/01 02:09:17;;;;;;;59.92;36.22;;;;;;;5.76;100.00;97527.13;4887305;29;20048;-78
2021/11/01 02:11:59;;;;;;;58.40;37.55;;;;;;;5.83;100.00;97530.34;4886694;29;20051;-78
2021/11/01 02:14:36;;;;;;;59.53;35.50;;;;;;;5.90;100.00;97529.03;4877906;29;20457;-77
2021/11/01 02:17:02;;;;;;;56.65;34.13;;;;;;;5.97;100.00;97528.72;4874736;29;20056;-77
2021/11/01 02:19:31;;;;;;;59.53;35.45;;;;;;;6.00;100.00;97519.22;4876488;29;20052;-77
2021/11/01 02:22:07;;;;;;;55.53;35.33;;;;;;;6.03;100.00;97515.94;4876163;29;20097;-77
2021/11/01 02:24:54;;;;;;;56.10;35.13;;;;;;;6.06;100.00;97510.78;4877424;29;20518;-77
2021/11/01 02:27:22;;;;;;;56.70;36.47;;;;;;;6.06;100.00;97507.25;4876888;29;20487;-77
2021/11/01 02:29:48;;;;;;;55.17;33.85;;;;;;;6.12;100.00;97503.41;4875674;29;20478;-75
2021/11/01 02:32:14;;;;;;;59.65;35.33;;;;;;;6.15;100.00;97490.09;4876339;29;20115;-75
2021/11/01 02:34:41;;;;;;;55.08;34.97;;;;;;;6.21;100.00;97491.72;4878394;29;20094;-77
2021/11/01 02:37:08;;;;;;;55.65;35.95;;;;;;;6.15;100.00;97484.69;4876325;29;20056;-75
2021/11/01 02:39:50;;;;;;;58.28;34.60;;;;;;;6.04;100.00;97474.16;4876580;29;20053;-76
2021/11/01 02:42:17;;;;;;;55.15;35.22;;;;;;;5.98;100.00;97483.41;4883050;29;20121;-78
2021/11/01 02:44:59;;;;;;;55.38;35.95;;;;;;;5.77;100.00;97480.72;4888617;29;20517;-78
2021/11/01 02:47:26;;;;;;;56.90;36.38;;;;;;;5.59;100.00;97480.50;4889046;29;20061;-78
2021/11/01 02:49:52;;;;;;;61.80;36.10;;;;;;;5.52;100.00;97471.81;4902351;29;20013;-78
2021/11/01 02:52:18;;;;;;;58.03;33.05;;;;;;;5.41;100.00;97476.47;4900837;29;20029;-78
2021/11/01 02:54:44;;;;;;;55.08;34.47;;;;;;;5.30;100.00;97486.50;4900938;29;20037;-79
2021/11/01 02:57:09;;;;;;;61.50;36.40;;;;;;;5.26;100.00;97480.00;4901488;29;20031;-78
2021/11/01 02:59:35;;;;;;;57.55;35.70;;;;;;;5.18;100.00;97480.56;4899843;29;20048;-78
2021/11/01 03:02:00;;;;;;;61.85;37.38;;;;;;;5.24;100.00;97476.75;4902279;29;20025;-79
2021/11/01 03:04:26;;;;;;;57.15;35.38;;;;;;;5.26;100.00;97479.22;4903543;29;20028;-80
2021/11/01 03:06:53;;;;;;;58.30;35.25;;;;;;;5.26;100.00;97463.72;4909581;29;20039;-78
2021/11/01 03:09:19;;;;;;;54.03;35.38;;;;;;;5.26;100.00;97455.59;4905808;29;20044;-78
2021/11/01 03:11:44;;;;;;;58.90;36.05;;;;;;;5.20;100.00;97451.28;4908051;29;20036;-78
2021/11/01 03:14:14;;;;;;;66.00;40.22;;;;;;;5.21;100.00;97450.19;4916045;29;20032;-80
2021/11/01 03:16:40;;;;;;;57.33;39.20;;;;;;;5.37;100.00;97449.09;4909075;29;20521;-78
2021/11/01 03:19:18;;;;;;;56.92;35.92;;;;;;;5.35;100.00;97440.44;4913924;29;20033;-79
2021/11/01 03:21:45;;;;;;;59.08;36.08;;;;;;;5.35;100.00;97429.59;4906796;29;20036;-78
2021/11/01 03:24:13;;;;;;;52.83;35.50;;;;;;;5.46;100.00;97437.66;4893972;29;20123;-78
2021/11/01 03:26:41;;;;;;;57.38;34.28;;;;;;;5.57;100.00;97433.84;4882646;29;20029;-77
2021/11/01 03:29:09;;;;;;;53.35;33.38;;;;;;;5.62;100.00;97431.13;4882397;29;20029;-79
2021/11/01 03:31:36;;;;;;;53.08;34.53;;;;;;;5.62;100.00;97429.22;4886599;29;20021;-78
2021/11/01 03:34:03;;;;;;;52.22;33.95;;;;;;;5.65;100.00;97434.09;4903536;29;20040;-77
2021/11/01 03:36:29;;;;;;;52.55;34.30;;;;;;;5.63;100.00;97430.84;4907338;29;20025;-78
2021/11/01 03:38:56;;;;;;;63.05;34.92;;;;;;;5.59;100.00;97418.94;4908745;29;20053;-79
2021/11/01 03:41:24;;;;;;;56.15;32.58;;;;;;;5.68;100.00;97421.88;4911459;29;20032;-79
2021/11/01 03:44:38;;;;;;;54.47;34.28;;;;;;;5.58;100.00;97421.91;4908715;29;20039;-77
2021/11/01 03:46:50;;;;;;;53.40;31.55;;;;;;;5.59;100.00;97423.53;4897934;29;20103;-79
2021/11/01 03:49:16;;;;;;;54.88;34.25;;;;;;;5.52;100.00;97428.44;4911961;29;20399;-79
2021/11/01 03:51:49;;;;;;;49.92;32.97;;;;;;;5.60;100.00;97419.75;4917145;29;20025;-77
2021/11/01 03:54:18;;;;;;;54.42;33.20;;;;;;;5.64;100.00;97408.03;4910646;29;20021;-78
2021/11/01 03:56:46;;;;;;;53.35;32.00;;;;;;;5.73;100.00;97402.88;4894214;29;20183;-79
2021/11/01 03:59:13;;;;;;;48.63;30.67;;;;;;;5.72;100.00;97410.19;4891530;29;20009;-78
2021/11/01 04:01:39;;;;;;;52.20;32.63;;;;;;;5.77;100.00;97412.88;4886566;29;20067;-78
2021/11/01 04:04:06;;;;;;;54.25;31.60;;;;;;;5.73;100.00;97398.25;4884171;29;20041;-76
2021/11/01 04:06:32;;;;;;;48.17;29.77;;;;;;;5.79;100.00;97409.91;4882570;29;20499;-78
2021/11/01 04:08:58;;;;;;;48.05;31.20;;;;;;;5.75;100.00;97398.78;4881812;29;20419;-77
2021/11/01 04:11:25;;;;;;;47.63;30.83;;;;;;;5.89;100.00;97407.97;4880985;29;20021;-77
2021/11/01 04:13:56;;;;;;;52.38;31.92;;;;;;;5.95;100.00;97400.63;4880161;29;20032;-78
2021/11/01 04:16:25;;;;;;;48.65;31.90;;;;;;;5.98;100.00;97400.09;4883301;29;20025;-78
2021/11/01 04:21:25;;;;;;;57.63;32.17;;;;;;;6.05;100.00;97389.69;4898753;29;20033;-78
2021/11/01 04:23:51;;;;;;;57.28;33.92;;;;;;;6.11;100.00;97387.78;4889792;29;20177;-77
2021/11/01 04:26:19;;;;;;;49.15;31.33;;;;;;;6.10;100.00;97386.16;4894572;29;20040;-76
2021/11/01 04:28:44;;;;;;;52.63;33.15;;;;;;;6.07;100.00;97384.81;4884242;29;20037;-79
2021/11/01 04:31:14;;;;;;;54.40;31.80;;;;;;;6.13;100.00;97382.88;4884952;29;20032;-80
2021/11/01 04:33:41;;;;;;;52.42;32.10;;;;;;;6.17;100.00;97382.03;4889945;29;20060;-78
2021/11/01 04:36:09;;;;;;;47.85;31.25;;;;;;;6.20;100.00;97383.38;4890655;29;20472;-78
2021/11/01 04:41:36;;;;;;;55.30;34.97;;;;;;;6.26;100.00;97369.50;4881065;29;20040;-78
2021/11/01 04:54:53;;;;;;;51.05;31.85;;;;;;;6.15;100.00;97369.81;4885408;29;20116;-78
2021/11/01 04:57:20;;;;;;;53.00;33.28;;;;;;;6.10;100.00;97376.13;4880206;29;20112;-77
2021/11/01 04:59:47;;;;;;;49.90;30.85;;;;;;;6.15;100.00;97376.06;4878055;29;20036;-77
2021/11/01 05:02:12;;;;;;;52.30;33.75;;;;;;;6.28;100.00;97380.06;4879367;29;20020;-78
2021/11/01 05:04:40;;;;;;;49.70;31.15;;;;;;;6.31;100.00;97372.16;4878077;29;20033;-77
2021/11/01 05:07:07;;;;;;;53.35;35.08;;;;;;;6.19;100.00;97369.00;4876061;29;20108;-77
2021/11/01 05:09:37;;;;;;;56.25;32.95;;;;;;;6.11;100.00;97360.66;4885070;29;20751;-77
2021/11/01 05:15:24;;;;;;;53.35;32.53;;;;;;;6.04;100.00;97357.44;4895858;29;20120;-77
2021/11/01 05:19:59;;;;;;;49.10;32.33;;;;;;;5.87;100.00;97365.94;4895261;29;20502;-77
2021/11/01 05:25:01;;;;;;;54.15;33.78;;;;;;;5.77;100.00;97376.78;4897533;29;20044;-78
2021/11/01 05:27:43;;;;;;;54.22;35.70;;;;;;;5.80;100.00;97377.06;4899532;29;20509;-78
2021/11/01 05:30:14;;;;;;;60.33;35.33;;;;;;;5.83;100.00;97378.38;4894666;29;20029;-77
2021/11/01 05:32:42;;;;;;;59.97;34.72;;;;;;;5.87;100.00;97376.78;4881584;29;20064;-77
2021/11/01 05:35:07;;;;;;;53.97;33.33;;;;;;;5.97;100.00;97373.19;4881732;29;20040;-78
2021/11/01 05:37:34;;;;;;;56.60;31.90;;;;;;;5.99;100.00;97374.53;4881172;29;20032;-78
2021/11/01 05:39:59;;;;;;;52.50;33.08;;;;;;;6.14;100.00;97379.88;4889728;29;20097;-77
2021/11/01 05:42:25;;;;;;;64.45;38.85;;;;;;;6.09;100.00;97371.78;4884903;29;20033;-77
2021/11/01 05:44:51;;;;;;;53.88;34.55;;;;;;;6.04;100.00;97377.25;4892667;29;20025;-79
2021/11/01 05:47:16;;;;;;;56.90;31.80;;;;;;;6.03;100.00;97374.78;4898828;29;20032;-77
2021/11/01 05:49:42;;;;;;;54.47;34.42;;;;;;;6.10;100.00;97367.16;4899191;29;20013;-80
2021/11/01 05:52:17;;;;;;;54.45;34.38;;;;;;;6.15;100.00;97364.41;4905548;29;20033;-78
2021/11/01 05:54:42;;;;;;;54.67;34.20;;;;;;;6.24;100.00;97371.66;4913223;29;20008;-78
2021/11/01 05:57:20;;;;;;;55.22;33.72;;;;;;;6.21;100.00;97369.50;4914085;29;20031;-77
2021/11/01 06:07:48;;;;;;;52.60;35.28;;;;;;;6.31;100.00;97353.16;4900362;29;20120;-79
2021/11/01 06:15:42;;;;;;;50.60;32.00;;;;;;;6.27;100.00;97343.94;4896587;29;20083;-77
2021/11/01 06:18:08;;;;;;;50.60;31.33;;;;;;;6.23;100.00;97355.69;4898463;29;20025;-77
2021/11/01 06:20:33;;;;;;;49.17;30.75;;;;;;;6.29;100.00;97363.50;4889093;29;20181;-77
2021/11/01 06:22:58;;;;;;;47.50;30.90;;;;;;;6.33;100.00;97369.16;4886163;29;20107;-77
2021/11/01 06:25:24;;;;;;;49.25;30.27;;;;;;;6.31;100.00;97352.34;4892281;29;20033;-80
2021/11/01 06:27:53;;;;;;;49.78;31.17;;;;;;;6.34;100.00;97355.31;4899236;29;20033;-78
2021/11/01 06:43:44;;;;;;;45.05;27.00;;;;;;;6.55;100.00;97360.59;4909882;29;20047;-80
2021/11/01 07:16:07;;;;;;;46.92;28.42;;;;;;;7.05;100.00;97365.56;4903205;29;20035;-80
2021/11/01 07:18:41;;;;;;;40.38;28.63;;;;;;;7.13;100.00;97361.41;4901983;29;20029;-80
2021/11/01 08:42:22;;;;;;;44.42;27.08;;;;;;;8.81;100.00;97296.97;4892098;29;20051;-80
2021/11/01 08:45:09;;;;;;;47.35;27.73;;;;;;;8.72;100.00;97300.66;4893188;29;20036;-80
2021/11/01 08:50:39;;;;;;;45.95;28.85;;;;;;;9.12;100.00;97283.56;4883400;29;20040;-77
2021/11/01 09:07:16;;;;;;;39.88;28.13;;;;;;;8.91;100.00;97274.97;4906843;29;20044;-81
2021/11/01 09:26:26;;;;;;;43.67;27.80;;;;;;;8.99;100.00;97251.66;4886128;29;20036;-75
2021/11/01 09:37:29;;;;;;;47.10;29.17;;;;;;;9.03;100.00;97248.00;4880042;29;20403;-79
2021/11/01 09:42:57;;;;;;;45.97;29.13;;;;;;;9.04;100.00;97243.34;4838452;29;20048;-76
2021/11/01 09:45:25;;;;;;;47.50;29.98;;;;;;;9.13;100.00;97238.81;4869569;29;20056;-77
2021/11/01 09:47:51;;;;;;;43.10;29.25;;;;;;;9.21;100.00;97237.31;4884356;29;20043;-79
2021/11/01 09:50:21;;;;;;;44.63;29.52;;;;;;;9.27;100.00;97236.88;4877770;29;20036;-77
2021/11/01 09:52:56;;;;;;;47.95;30.58;;;;;;;9.18;100.00;97227.78;4894067;29;20051;-78
2021/11/01 10:00:53;;;;;;;45.92;29.80;;;;;;;9.24;100.00;97226.56;4902693;29;20083;-79
2021/11/01 10:03:29;;;;;;;42.47;28.98;;;;;;;9.27;100.00;97223.22;4902668;29;20029;-76
2021/11/01 10:05:56;;;;;;;44.72;30.02;;;;;;;9.31;100.00;97216.03;4878627;29;20036;-78
2021/11/01 10:08:21;;;;;;;43.65;29.08;;;;;;;9.38;100.00;97216.44;4882378;29;20025;-76
2021/11/01 10:10:47;;;;;;;43.65;28.98;;;;;;;9.41;100.00;97215.03;4895773;29;20043;-78
2021/11/01 10:13:19;;;;;;;42.33;28.83;;;;;;;9.41;100.00;97207.66;4897620;29;20450;-76
2021/11/01 10:18:42;;;;;;;51.00;30.92;;;;;;;9.51;100.00;97196.50;4908400;29;20587;-77
2021/11/01 10:21:07;;;;;;;45.00;29.58;;;;;;;9.64;100.00;97198.41;4901197;29;20033;-77
2021/11/01 10:23:33;;;;;;;44.78;29.70;;;;;;;9.58;100.00;97194.19;4881014;29;20681;-77
2021/11/01 10:26:10;;;;;;;48.92;31.90;;;;;;;9.60;100.00;97202.03;4882345;29;20387;-79
2021/11/01 10:28:35;;;;;;;45.95;30.88;;;;;;;9.55;100.00;97183.84;4887109;29;20152;-80
2021/11/01 10:31:12;;;;;;;45.20;30.23;;;;;;;9.44;100.00;97187.94;4886780;29;20065;-80
2021/11/01 10:33:48;;;;;;;43.00;30.10;;;;;;;9.17;100.00;97179.81;4903236;29;20053;-80
2021/11/01 10:36:27;;;;;;;;;;;;;;;9.31;100.00;97182.50;4913815;29;20025;-80
2021/11/01 10:38:57;;;;;;;44.85;29.95;;;;;;;9.53;100.00;97169.72;4919502;29;19907;-79
2021/11/01 11:30:24;;;;;;;52.40;31.80;;;;;;;10.12;100.00;97061.16;4924286;29;20055;-81
2021/11/01 11:38:45;;;;;;;49.63;34.45;;;;;;;10.24;100.00;97058.72;5756839;23;20063;-81
2021/11/01 16:28:32;;;;;;;98.15;58.00;;;;;;;9.02;100.00;96746.47;5769172;23;20425;-80
2021/11/01 16:33:40;;;;;;;86.93;55.38;;;;;;;9.23;100.00;96772.03;5914674;23;20015;-74
2021/11/01 16:46:58;;;;;;;91.00;53.15;;;;;;;9.12;100.00;96711.50;5188442;23;20068;-79
2021/11/01 16:49:31;;;;;;;86.97;52.83;;;;;;;9.39;100.00;96732.28;4915983;29;20029;-82
2021/11/01 16:52:02;;;;;;;83.88;51.22;;;;;;;9.09;100.00;96673.94;4904848;29;20040;-81
2021/11/01 16:54:33;;;;;;;83.32;51.20;;;;;;;9.37;100.00;96725.53;4899114;29;20008;-81
2021/11/01 17:00:29;;;;;;;89.35;54.90;;;;;;;9.06;100.00;96668.31;5143178;23;20039;-80
2021/11/01 17:05:25;;;;;;;85.22;51.42;;;;;;;9.19;100.00;96700.13;4943576;29;20027;-79
2021/11/01 18:44:53;;;;;;;70.55;43.63;;;;;;;9.44;100.00;96652.19;4946368;29;20031;-74
2021/11/01 18:53:13;;;;;;;78.00;47.55;;;;;;;9.30;100.00;96641.44;4902671;29;20056;-74
2021/11/01 18:55:43;;;;;;;87.65;50.35;;;;;;;9.30;100.00;96652.34;4920622;29;20043;-73
2021/11/01 18:58:12;;;;;;;92.82;54.17;;;;;;;9.33;100.00;96643.53;4940478;29;20497;-74
2021/11/01 19:00:42;;;;;;;98.20;59.30;;;;;;;9.40;100.00;96651.19;4923837;29;20034;-73
2021/11/01 19:03:09;;;;;;;83.10;50.53;;;;;;;9.43;100.00;96643.19;4925067;29;21588;-72
2021/11/01 19:05:52;;;;;;;88.47;53.17;;;;;;;9.37;100.00;96630.00;4942432;29;20035;-73
2021/11/01 19:11:25;;;;;;;92.95;54.58;;;;;;;9.37;100.00;96636.28;4942710;29;20103;-73
2021/11/01 21:26:04;;;;;;;59.50;37.65;;;;;;;9.74;100.00;96451.91;4952033;29;20370;-75
2021/11/01 21:28:30;;;;;;;52.17;34.63;;;;;;;9.76;100.00;96459.78;4951836;28;20039;-75
2021/11/01 21:30:55;;;;;;;46.55;30.65;;;;;;;9.75;100.00;96456.22;4920964;29;20071;-75
2021/11/01 21:33:26;;;;;;;40.78;28.75;;;;;;;9.83;100.00;96463.59;4932116;29;20495;-75
2021/11/01 21:35:53;;;;;;;42.40;27.13;;;;;;;9.82;100.00;96455.72;4923314;29;20288;-73
2021/11/01 21:38:19;;;;;;;34.47;24.88;;;;;;;9.81;100.00;96456.84;4935252;29;20039;-73
2021/11/01 21:40:46;;;;;;;35.53;24.23;;;;;;;9.82;100.00;96445.63;4935220;29;20042;-74
2021/11/01 21:43:11;;;;;;;29.98;23.08;;;;;;;9.83;100.00;96440.97;4950256;29;20035;-74
2021/11/01 21:45:37;;;;;;;32.05;20.98;;;;;;;9.84;100.00;96458.94;4933877;29;20499;-72
2021/11/01 21:48:03;;;;;;;30.75;21.33;;;;;;;9.85;100.00;96455.06;4934712;29;20023;-74
2021/11/01 21:50:28;;;;;;;28.10;19.38;;;;;;;9.83;100.00;96449.16;4934501;29;20027;-75
2021/11/01 21:52:56;;;;;;;30.33;21.02;;;;;;;9.85;100.00;96455.06;4945980;29;20023;-74
2021/11/01 21:55:24;;;;;;;33.35;20.70;;;;;;;9.80;100.00;96441.63;4939889;29;20047;-74
2021/11/01 22:00:48;;;;;;;27.90;19.65;;;;;;;9.86;100.00;96437.56;4902088;29;20035;-76
2021/11/01 22:25:02;;;;;;;35.50;23.33;;;;;;;9.69;100.00;96395.56;4918170;28;20043;-77
2021/11/01 22:57:36;;;;;;;35.40;24.85;;;;;;;9.37;100.00;96278.00;4932553;28;20111;-76
2021/11/01 23:00:17;;;;;;;33.33;23.63;;;;;;;9.35;100.00;96272.91;4915515;29;20126;-76
2021/11/01 23:02:42;;;;;;;37.13;24.83;;;;;;;9.32;100.00;96273.56;4932744;29;20070;-76
2021/11/01 23:05:26;;;;;;;34.17;22.95;;;;;;;9.37;100.00;96262.44;4914957;29;20449;-77
2021/11/01 23:32:43;;;;;;;28.45;19.02;;;;;;;9.48;100.00;96168.16;4940443;29;20034;-76
2021/11/01 23:35:09;;;;;;;28.05;19.02;;;;;;;9.51;100.00;96161.25;4935879;29;20019;-76
2021/11/01 23:37:34;;;;;;;23.05;17.90;;;;;;;9.46;100.00;96167.69;4942434;29;20491;-77
2021/11/01 23:39:59;;;;;;;25.48;17.40;;;;;;;9.47;100.00;96172.03;4927444;29;20020;-76
2021/11/01 23:42:25;;;;;;;28.63;18.23;;;;;;;9.49;100.00;96180.66;4937546;29;20026;-76
2021/11/01 23:44:54;;;;;;;24.63;17.55;;;;;;;9.47;100.00;96185.66;4954279;29;20038;-76
2021/11/01 23:47:21;;;;;;;27.92;18.85;;;;;;;9.53;100.00;96197.97;4955081;29;20098;-76
2021/11/01 23:49:46;;;;;;;26.60;19.92;;;;;;;9.54;100.00;96188.66;4954993;29;20027;-76
2021/11/01 23:52:13;;;;;;;27.20;18.75;;;;;;;9.61;100.00;96193.59;4954550;29;20042;-76
2021/11/01 23:54:43;;;;;;;25.08;18.83;;;;;;;9.61;100.00;96188.94;4954569;29;20035;-77
2021/11/01 23:57:09;;;;;;;25.70;18.88;;;;;;;9.69;100.00;96190.81;4936422;29;20075;-77
2021/11/01 23:59:35;;;;;;;27.63;19.08;;;;;;;9.64;100.00;96182.03;4954802;29;20046;-77
